Chadwick, Missouri
Current Conditions -  °F | °C
As of 6:15 PM on Wednesday 28 Jan 2015 (Local Time) from KFWB Reporting Station
Clear Clear  
Wind Chill: 63°   Ceiling: Unl
Heat Index: 63°   Visibility: 10mi
Dew Point: 39°   Wind: 8mph
Humidity: 42%   Direction: 190°S
Pressure: 29.93"   Gusts: NA
Location:  36.93°N, 93.06°W
Report Text: KFWB 290015Z AUTO 19007KT 170V250 10SM CLR 17/04 A2993 RMK AO2
Loading
Personal Weather Stations






























Interactive Weather Map New forecast layout! Learn more

10-Day Weather Forecast

Advertisements
Track Severe Weather on mobile